Home > Products > Valid Products > TAF

000
FTUS43 KTOP 282320
TAFTOP
TAF
KTOP 282320Z 2900/2924 02005KT P6SM SCT080
     FM291500 05011KT P6SM VCSH FEW020 BKN050=



000
FTUS43 KTOP 282020 AAA
TAFTOP
TAF AMD
KTOP 282020Z 2820/2918 33012KT P6SM SCT020 SCT100
     FM290000 02005KT P6SM SCT100
     FM290900 05008KT P6SM VCSH SCT025 BKN100=



000
FTUS43 KTOP 281720
TAFTOP
TAF
KTOP 281720Z 2818/2918 29009KT P6SM SCT020 SCT100
     FM290000 02005KT P6SM SCT100
     FM290900 05008KT P6SM VCSH SCT025 BKN100=



000
FTUS43 KTOP 281613 AAB
TAFTOP
TAF AMD
KTOP 281613Z 2816/2912 27012KT P6SM SCT017 BKN030
     FM281800 31009KT P6SM SCT035 SCT100
     FM290000 02005KT P6SM SCT100
     FM290900 05008KT P6SM VCSH SCT025 BKN100=



000
FTUS43 KTOP 281436 AAA
TAFTOP
TAF AMD
KTOP 281436Z 2815/2912 28012KT P6SM SCT017 BKN030
     FM281600 31009KT P6SM SCT035 SCT100
     FM290000 02005KT P6SM SCT100
     FM290900 05008KT P6SM VCSH SCT025 BKN100=



000
FTUS43 KTOP 281436 AAA
TAFTOP
TAF AMD
KTOP 281436Z 2815/2912 28012KT P6SM SCT017 BKN030
     FM281600 31009KT P6SM SCT035 SCT100
     FM290000 02005KT P6SM SCT100
     FM290900 05008KT P6SM VCSH SCT025 BKN100=



000
FTUS43 KTOP 281120
TAFTOP
TAF
KTOP 281120Z 2812/2912 27010KT P6SM SCT025
      TEMPO 2812/2815 BKN021
     FM281600 31009KT P6SM SCT035 SCT100
     FM290000 02005KT P6SM SCT100
     FM290900 05008KT P6SM VCSH SCT025 BKN100=



000
FTUS43 KTOP 280835 AAC
TAFTOP
TAF AMD
KTOP 280835Z 2809/2906 25010KT P6SM BKN035
      TEMPO 2809/2812 BKN021
     FM281500 30009KT P6SM SCT060 BKN250
     FM290000 35006KT P6SM OVC200=



000
FTUS43 KTOP 280835 AAC
TAFTOP
TAF AMD
KTOP 280835Z 2809/2906 25010KT P6SM BKN035
      TEMPO 2809/2812 BKN021
     FM281500 30009KT P6SM SCT060 BKN250
     FM290000 35006KT P6SM OVC200=



000
FTUS43 KTOP 280604 AAA
TAFTOP
TAF AMD
KTOP 280604Z 2806/2906 25012KT P6SM SCT020
     FM280645 25010KT P6SM OVC018
     FM281500 30009KT P6SM SCT060 BKN250
     FM290000 35006KT P6SM OVC200=



000
FTUS43 KTOP 280520
TAFTOP
TAF
KTOP 280520Z 2806/2906 24007KT P6SM SCT020
     FM281500 30009KT P6SM SCT060 BKN250
     FM290000 35006KT P6SM OVC200=



000
FTUS43 KTOP 272331
TAFTOP
TAF
KTOP 272331Z 2800/2824 26012G19KT P6SM BKN040
     FM280200 24007KT P6SM SCT050 BKN090
     FM281500 30009KT P6SM BKN250=



000
FTUS43 KTOP 272027 AAD
TAFTOP
TAF AMD
KTOP 272027Z 2720/2818 25011G18KT P6SM SCT050
     FM272200 26012G22KT P6SM BKN035
     FM280000 26007KT P6SM SCT040 SCT100=



000
FTUS43 KTOP 271900 AAC
TAFTOP
TAF AMD
KTOP 271900Z 2719/2818 21012G22KT P6SM -TSRA BKN035CB
     FM272100 24012G22KT P6SM BKN035
     FM280000 26007KT P6SM SCT040 SCT100=



000
FTUS43 KTOP 271840 AAA
TAFTOP
TAF AMD
KTOP 271840Z 2719/2818 21012G22KT P6SM VCTS BKN035CB
     FM272100 24012G22KT P6SM BKN035
     FM280000 26007KT P6SM SCT040 SCT100=



000
FTUS43 KTOP 271720
TAFTOP
TAF
KTOP 271720Z 2718/2818 21012G22KT P6SM VCSH BKN035
     FM280000 26007KT P6SM SCT040 SCT100=



000
FTUS43 KTOP 271720
TAFTOP
TAF
KTOP 271720Z 2718/2818 21012G22KT P6SM VCSH BKN035
     FM280000 26007KT P6SM SCT040 SCT100=



000
FTUS43 KTOP 271414 AAB
TAFTOP
TAF AMD
KTOP 271414Z 2714/2812 17009KT P6SM OVC029
     FM271700 24010KT P6SM VCSH BKN035
     FM280000 26007KT P6SM SCT040 SCT100=



000
FTUS43 KTOP 271120
TAFTOP
TAF
KTOP 271120Z 2712/2812 19009KT P6SM SCT025 BKN100
     FM271700 24010KT P6SM VCSH BKN035
     FM280000 26007KT P6SM SCT040 SCT100=



000
FTUS43 KTOP 271120
TAFTOP
TAF
KTOP 271120Z 2712/2812 19009KT P6SM SCT025 BKN100
     FM271700 24010KT P6SM VCSH BKN035
     FM280000 26007KT P6SM SCT040 SCT100=



000
FTUS43 KTOP 270746 AAB
TAFTOP
TAF AMD
KTOP 270746Z 2708/2806 09010KT P6SM SCT010 BKN090
     FM271100 16010KT P6SM BKN040
     FM271400 24011KT P6SM SCT040
     FM271900 25010KT P6SM VCSH BKN035
     FM280100 26008KT P6SM SCT200=



000
FTUS43 KTOP 270521
TAFTOP
TAF
KTOP 270521Z 2706/2806 08010KT P6SM -SHRA VCTS BKN090CB
      TEMPO 2706/2710 4SM TSRA BR BKN045CB
     FM271100 16010KT P6SM BKN040
     FM271400 24011KT P6SM SCT040
     FM271900 25010KT P6SM VCSH BKN035
     FM280100 26008KT P6SM SCT200=



000
FTUS43 KTOP 270322 AAB
TAFTOP
TAF AMD
KTOP 270322Z 2703/2724 09010KT P6SM -SHRA VCTS BKN090CB
      TEMPO 2703/2707 4SM TSRA BR BKN045CB
     FM271100 16011KT P6SM BKN040
     FM271400 24013KT P6SM SCT040=



000
FTUS43 KTOP 262329
TAFTOP
TAF
KTOP 262329Z 2700/2724 09010KT 5SM -TSRA BR BKN035CB
      TEMPO 2700/2704 2SM TSRA BR BKN025CB
     FM270500 12010KT 4SM SHRA VCTS BKN025CB
     FM271100 16011KT P6SM BKN040
     FM271400 24013KT P6SM SCT040=



000
FTUS43 KTOP 262034 AAC
TAFTOP
TAF AMD
KTOP 262034Z 2621/2718 11012G20KT P6SM VCTS BKN035CB
      TEMPO 2621/2701 VRB20G40KT 2SM TSRA BR BKN030CB
     FM271100 16011KT P6SM BKN040=



000
FTUS43 KTOP 261742
TAFTOP
TAF
KTOP 261742Z 2618/2718 12011G20KT P6SM SCT030
     FM262100 13012G22KT P6SM VCTS BKN035CB
      TEMPO 2702/2706 2SM TSRA BR BKN025CB
     FM271100 16011KT P6SM BKN040=



000
FTUS43 KTOP 261742
TAFTOP
TAF
KTOP 261742Z 2618/2718 12011G20KT P6SM SCT030
     FM262100 13012G22KT P6SM VCTS BKN035CB
      TEMPO 2702/2706 2SM TSRA BR BKN025CB
     FM271100 16011KT P6SM BKN040=



000
FTUS43 KTOP 261454 AAA
TAFTOP
TAF AMD
KTOP 261454Z 2615/2712 09008KT P6SM BKN035
     FM261800 15011G20KT P6SM SCT030
     FM262100 15012KT P6SM VCTS BKN035CB=



000
FTUS43 KTOP 261134
TAFTOP
TAF
KTOP 261134Z 2612/2712 10005KT 6SM BR BKN024 OVC040
      TEMPO 2613/2615 BKN015
     FM261800 15011G20KT P6SM SCT030
     FM262100 15012KT P6SM VCTS BKN035CB=



000
FTUS43 KTOP 261134
TAFTOP
TAF
KTOP 261134Z 2612/2712 10005KT 6SM BR BKN024 OVC040
      TEMPO 2613/2615 BKN015
     FM261800 15011G20KT P6SM SCT030
     FM262100 15012KT P6SM VCTS BKN035CB=



000
FTUS43 KTOP 261106 AAB
TAFTOP
TAF AMD
KTOP 261106Z 2611/2706 10005KT 4SM TSRA BKN050CB
     FM261200 10005KT 6SM BR BKN015 OVC040
     FM261500 12011KT 5SM BR BKN020
     FM261800 13014G21KT P6SM SCT030
     FM262100 15012KT P6SM VCTS BKN035CB=



000
FTUS43 KTOP 260911 AAA
TAFTOP
TAF AMD
KTOP 260911Z 2609/2706 10005KT P6SM SCT050
     FM261130 10005KT 6SM BR BKN015 OVC040
     FM261500 12011KT 5SM BR BKN020
     FM261800 13014G21KT P6SM SCT030
     FM262100 15012KT P6SM VCTS BKN035CB=



000
FTUS43 KTOP 260911 AAA
TAFTOP
TAF AMD
KTOP 260911Z 2609/2706 10005KT P6SM SCT050
     FM261130 10005KT 6SM BR BKN015 OVC040
     FM261500 12011KT 5SM BR BKN020
     FM261800 13014G21KT P6SM SCT030
     FM262100 15012KT P6SM VCTS BKN035CB=



000
FTUS43 KTOP 260520
TAFTOP
TAF
KTOP 260520Z 2606/2706 10005KT P6SM SCT050
     FM260900 10003KT 5SM BR BKN012
     FM261100 10005KT 4SM BR VCTS BKN015 OVC040CB
     FM261500 12011KT 5SM BR BKN020
     FM261800 13014G21KT P6SM SCT030
     FM270300 15012KT P6SM VCTS BKN035CB=



000
FTUS43 KTOP 260520
TAFTOP
TAF
KTOP 260520Z 2606/2706 10005KT P6SM SCT050
     FM260900 10003KT 5SM BR BKN012
     FM261100 10005KT 4SM BR VCTS BKN015 OVC040CB
     FM261500 12011KT 5SM BR BKN020
     FM261800 13014G21KT P6SM SCT030
     FM270300 15012KT P6SM VCTS BKN035CB=



    US Dept of Commerce
    National Oceanic and Atmospheric Administration
    National Weather Service
    1325 East West Highway
    Silver Spring, MD 20910
    Page Author: NWS Internet Services Team
Disclaimer
Information Quality
Credits
Glossary
Privacy Policy
Freedom of Information Act (FOIA)
About Us
Career Opportunities